Аэропорт: Могилёв. Могилёв

ICAO: UMOO

METAR:
2018/09/23 11:00
UMOO 231100Z 23006G09MPS 9999 BKN036 15/09 Q1012 NOSIG
METAR:
2016/01/23 06:00
TAF UMOO 230500Z 2306/2315 28005MPS 4000 -SN BR OVC008 
      TEMPO 2306/2315 1200 SN BR BKN005